sensor_id;sensor_type;location;lat;lon;timestamp;P1;durP1;ratioP1;P2;durP2;ratioP2
59308;SDS011;48433;53.016;-2.260;2023-10-31T00:00:03;14.45;;;8.60;;
59308;SDS011;48433;53.016;-2.260;2023-10-31T00:02:32;15.55;;;9.88;;
59308;SDS011;48433;53.016;-2.260;2023-10-31T00:04:59;15.93;;;8.30;;
59308;SDS011;48433;53.016;-2.260;2023-10-31T00:07:27;14.88;;;9.60;;
59308;SDS011;48433;53.016;-2.260;2023-10-31T00:09:56;16.83;;;9.30;;
59308;SDS011;48433;53.016;-2.260;2023-10-31T00:12:24;15.00;;;9.27;;
59308;SDS011;48433;53.016;-2.260;2023-10-31T00:14:52;15.23;;;9.02;;
59308;SDS011;48433;53.016;-2.260;2023-10-31T00:17:19;14.63;;;8.77;;
59308;SDS011;48433;53.016;-2.260;2023-10-31T00:19:47;16.17;;;9.07;;
59308;SDS011;48433;53.016;-2.260;2023-10-31T00:22:15;13.00;;;7.90;;
59308;SDS011;48433;53.016;-2.260;2023-10-31T00:24:43;15.68;;;9.25;;
59308;SDS011;48433;53.016;-2.260;2023-10-31T00:27:11;16.88;;;9.68;;
59308;SDS011;48433;53.016;-2.260;2023-10-31T00:29:38;21.58;;;10.63;;
59308;SDS011;48433;53.016;-2.260;2023-10-31T00:32:06;15.45;;;9.02;;
59308;SDS011;48433;53.016;-2.260;2023-10-31T00:34:34;15.73;;;8.75;;
59308;SDS011;48433;53.016;-2.260;2023-10-31T00:37:02;16.77;;;9.50;;
59308;SDS011;48433;53.016;-2.260;2023-10-31T00:39:29;16.45;;;9.23;;
59308;SDS011;48433;53.016;-2.260;2023-10-31T00:41:57;15.88;;;9.60;;
59308;SDS011;48433;53.016;-2.260;2023-10-31T00:44:25;17.38;;;9.65;;
59308;SDS011;48433;53.016;-2.260;2023-10-31T00:46:52;15.35;;;9.48;;
59308;SDS011;48433;53.016;-2.260;2023-10-31T00:49:20;16.58;;;9.20;;
59308;SDS011;48433;53.016;-2.260;2023-10-31T00:51:48;16.15;;;9.82;;
59308;SDS011;48433;53.016;-2.260;2023-10-31T00:54:15;16.45;;;9.60;;
59308;SDS011;48433;53.016;-2.260;2023-10-31T00:56:43;16.98;;;9.75;;
59308;SDS011;48433;53.016;-2.260;2023-10-31T00:59:12;17.08;;;9.32;;
59308;SDS011;48433;53.016;-2.260;2023-10-31T01:01:40;18.25;;;9.90;;
59308;SDS011;48433;53.016;-2.260;2023-10-31T01:04:10;15.70;;;9.55;;
59308;SDS011;48433;53.016;-2.260;2023-10-31T01:06:41;17.13;;;9.60;;
59308;SDS011;48433;53.016;-2.260;2023-10-31T01:09:09;17.00;;;9.05;;
59308;SDS011;48433;53.016;-2.260;2023-10-31T01:11:38;17.33;;;9.45;;
59308;SDS011;48433;53.016;-2.260;2023-10-31T01:14:06;18.10;;;10.95;;
59308;SDS011;48433;53.016;-2.260;2023-10-31T01:16:34;19.63;;;10.10;;
59308;SDS011;48433;53.016;-2.260;2023-10-31T01:19:02;16.02;;;9.63;;
59308;SDS011;48433;53.016;-2.260;2023-10-31T01:21:30;16.70;;;9.52;;
59308;SDS011;48433;53.016;-2.260;2023-10-31T01:23:58;19.90;;;10.25;;
59308;SDS011;48433;53.016;-2.260;2023-10-31T01:26:26;19.42;;;11.15;;
59308;SDS011;48433;53.016;-2.260;2023-10-31T01:28:54;19.75;;;10.82;;
59308;SDS011;48433;53.016;-2.260;2023-10-31T01:31:22;18.52;;;10.95;;
59308;SDS011;48433;53.016;-2.260;2023-10-31T01:33:50;18.83;;;10.77;;
59308;SDS011;48433;53.016;-2.260;2023-10-31T01:36:18;17.75;;;11.00;;
59308;SDS011;48433;53.016;-2.260;2023-10-31T01:38:46;18.80;;;9.85;;
59308;SDS011;48433;53.016;-2.260;2023-10-31T01:41:14;19.45;;;10.43;;
59308;SDS011;48433;53.016;-2.260;2023-10-31T01:43:42;18.83;;;10.45;;
59308;SDS011;48433;53.016;-2.260;2023-10-31T01:46:10;19.35;;;9.65;;
59308;SDS011;48433;53.016;-2.260;2023-10-31T01:48:38;17.23;;;10.40;;
59308;SDS011;48433;53.016;-2.260;2023-10-31T01:51:06;17.50;;;9.80;;
59308;SDS011;48433;53.016;-2.260;2023-10-31T01:53:34;15.63;;;9.50;;
59308;SDS011;48433;53.016;-2.260;2023-10-31T01:56:03;18.45;;;10.05;;
59308;SDS011;48433;53.016;-2.260;2023-10-31T01:58:36;19.13;;;10.35;;
59308;SDS011;48433;53.016;-2.260;2023-10-31T02:01:04;21.50;;;12.88;;
59308;SDS011;48433;53.016;-2.260;2023-10-31T02:03:33;16.83;;;9.88;;
59308;SDS011;48433;53.016;-2.260;2023-10-31T02:06:01;17.73;;;9.60;;
59308;SDS011;48433;53.016;-2.260;2023-10-31T02:08:29;16.08;;;8.75;;
59308;SDS011;48433;53.016;-2.260;2023-10-31T02:10:57;18.80;;;9.40;;
59308;SDS011;48433;53.016;-2.260;2023-10-31T02:13:25;18.23;;;9.90;;
59308;SDS011;48433;53.016;-2.260;2023-10-31T02:15:53;15.60;;;8.70;;
59308;SDS011;48433;53.016;-2.260;2023-10-31T02:18:21;14.57;;;8.13;;
59308;SDS011;48433;53.016;-2.260;2023-10-31T02:20:49;15.68;;;9.10;;
59308;SDS011;48433;53.016;-2.260;2023-10-31T02:23:16;16.73;;;8.45;;
59308;SDS011;48433;53.016;-2.260;2023-10-31T02:25:44;20.20;;;9.10;;
59308;SDS011;48433;53.016;-2.260;2023-10-31T02:28:12;14.52;;;7.97;;
59308;SDS011;48433;53.016;-2.260;2023-10-31T02:30:40;16.33;;;8.70;;
59308;SDS011;48433;53.016;-2.260;2023-10-31T02:33:08;15.40;;;8.35;;
59308;SDS011;48433;53.016;-2.260;2023-10-31T02:35:35;16.83;;;8.85;;
59308;SDS011;48433;53.016;-2.260;2023-10-31T02:38:03;14.70;;;8.10;;
59308;SDS011;48433;53.016;-2.260;2023-10-31T02:40:31;15.30;;;7.68;;
59308;SDS011;48433;53.016;-2.260;2023-10-31T02:42:59;14.63;;;7.97;;
59308;SDS011;48433;53.016;-2.260;2023-10-31T02:45:26;16.65;;;8.65;;
59308;SDS011;48433;53.016;-2.260;2023-10-31T02:47:54;17.10;;;8.93;;
59308;SDS011;48433;53.016;-2.260;2023-10-31T02:50:23;15.90;;;7.72;;
59308;SDS011;48433;53.016;-2.260;2023-10-31T02:52:51;12.40;;;7.43;;
59308;SDS011;48433;53.016;-2.260;2023-10-31T02:55:18;15.43;;;7.35;;
59308;SDS011;48433;53.016;-2.260;2023-10-31T02:57:46;12.77;;;6.38;;
59308;SDS011;48433;53.016;-2.260;2023-10-31T03:00:14;12.90;;;6.78;;
59308;SDS011;48433;53.016;-2.260;2023-10-31T03:02:41;14.55;;;7.47;;
59308;SDS011;48433;53.016;-2.260;2023-10-31T03:05:09;13.38;;;6.88;;
59308;SDS011;48433;53.016;-2.260;2023-10-31T03:07:37;12.85;;;6.38;;
59308;SDS011;48433;53.016;-2.260;2023-10-31T03:10:05;15.18;;;6.93;;
59308;SDS011;48433;53.016;-2.260;2023-10-31T03:12:33;14.63;;;6.90;;
59308;SDS011;48433;53.016;-2.260;2023-10-31T03:15:02;15.15;;;6.63;;
59308;SDS011;48433;53.016;-2.260;2023-10-31T03:17:30;14.00;;;6.97;;
59308;SDS011;48433;53.016;-2.260;2023-10-31T03:19:58;11.63;;;6.00;;
59308;SDS011;48433;53.016;-2.260;2023-10-31T03:22:26;14.10;;;6.28;;
59308;SDS011;48433;53.016;-2.260;2023-10-31T03:24:53;12.10;;;6.43;;
59308;SDS011;48433;53.016;-2.260;2023-10-31T03:27:21;11.30;;;5.63;;
59308;SDS011;48433;53.016;-2.260;2023-10-31T03:29:49;11.95;;;6.53;;
59308;SDS011;48433;53.016;-2.260;2023-10-31T03:32:17;13.40;;;6.60;;
59308;SDS011;48433;53.016;-2.260;2023-10-31T03:34:44;13.85;;;6.82;;
59308;SDS011;48433;53.016;-2.260;2023-10-31T03:37:12;13.20;;;6.60;;
59308;SDS011;48433;53.016;-2.260;2023-10-31T03:39:40;10.43;;;5.95;;
59308;SDS011;48433;53.016;-2.260;2023-10-31T03:42:08;11.45;;;6.18;;
59308;SDS011;48433;53.016;-2.260;2023-10-31T03:44:35;12.23;;;6.78;;
59308;SDS011;48433;53.016;-2.260;2023-10-31T03:47:03;12.65;;;5.97;;
59308;SDS011;48433;53.016;-2.260;2023-10-31T03:49:31;10.63;;;5.65;;
59308;SDS011;48433;53.016;-2.260;2023-10-31T03:51:58;11.02;;;5.80;;
59308;SDS011;48433;53.016;-2.260;2023-10-31T03:54:26;13.75;;;6.63;;
59308;SDS011;48433;53.016;-2.260;2023-10-31T03:56:54;13.77;;;6.72;;
59308;SDS011;48433;53.016;-2.260;2023-10-31T03:59:21;12.88;;;6.40;;
59308;SDS011;48433;53.016;-2.260;2023-10-31T04:01:49;12.25;;;5.40;;
59308;SDS011;48433;53.016;-2.260;2023-10-31T04:04:17;13.13;;;5.60;;
59308;SDS011;48433;53.016;-2.260;2023-10-31T04:06:44;13.98;;;5.78;;
59308;SDS011;48433;53.016;-2.260;2023-10-31T04:09:12;11.63;;;6.07;;
59308;SDS011;48433;53.016;-2.260;2023-10-31T04:11:40;9.95;;;5.70;;
59308;SDS011;48433;53.016;-2.260;2023-10-31T04:14:10;11.15;;;5.50;;
59308;SDS011;48433;53.016;-2.260;2023-10-31T04:16:40;10.82;;;5.18;;
59308;SDS011;48433;53.016;-2.260;2023-10-31T04:19:12;11.55;;;5.07;;
59308;SDS011;48433;53.016;-2.260;2023-10-31T04:21:40;9.55;;;4.60;;
59308;SDS011;48433;53.016;-2.260;2023-10-31T04:24:08;9.30;;;4.90;;
59308;SDS011;48433;53.016;-2.260;2023-10-31T04:26:35;9.38;;;4.93;;
59308;SDS011;48433;53.016;-2.260;2023-10-31T04:29:03;11.10;;;4.72;;
59308;SDS011;48433;53.016;-2.260;2023-10-31T04:31:31;9.40;;;5.07;;
59308;SDS011;48433;53.016;-2.260;2023-10-31T04:34:10;9.10;;;4.45;;
59308;SDS011;48433;53.016;-2.260;2023-10-31T04:36:38;10.88;;;5.18;;
59308;SDS011;48433;53.016;-2.260;2023-10-31T04:39:05;10.52;;;5.00;;
59308;SDS011;48433;53.016;-2.260;2023-10-31T04:41:33;10.75;;;5.20;;
59308;SDS011;48433;53.016;-2.260;2023-10-31T04:44:01;9.63;;;5.15;;
59308;SDS011;48433;53.016;-2.260;2023-10-31T04:46:28;10.52;;;4.55;;
59308;SDS011;48433;53.016;-2.260;2023-10-31T04:48:56;11.88;;;5.45;;
59308;SDS011;48433;53.016;-2.260;2023-10-31T04:51:24;8.70;;;4.07;;
59308;SDS011;48433;53.016;-2.260;2023-10-31T04:53:51;9.68;;;4.32;;
59308;SDS011;48433;53.016;-2.260;2023-10-31T04:56:19;9.20;;;3.95;;
59308;SDS011;48433;53.016;-2.260;2023-10-31T04:58:47;8.73;;;4.28;;
59308;SDS011;48433;53.016;-2.260;2023-10-31T05:01:15;8.82;;;4.30;;
59308;SDS011;48433;53.016;-2.260;2023-10-31T05:03:43;8.02;;;3.97;;
59308;SDS011;48433;53.016;-2.260;2023-10-31T05:06:10;8.10;;;3.70;;
59308;SDS011;48433;53.016;-2.260;2023-10-31T05:08:38;8.38;;;4.18;;
59308;SDS011;48433;53.016;-2.260;2023-10-31T05:11:06;7.18;;;3.55;;
59308;SDS011;48433;53.016;-2.260;2023-10-31T05:13:34;8.95;;;3.60;;
59308;SDS011;48433;53.016;-2.260;2023-10-31T05:16:01;8.52;;;3.90;;
59308;SDS011;48433;53.016;-2.260;2023-10-31T05:18:29;8.60;;;3.67;;
59308;SDS011;48433;53.016;-2.260;2023-10-31T05:20:56;7.45;;;3.45;;
59308;SDS011;48433;53.016;-2.260;2023-10-31T05:23:24;6.97;;;3.92;;
59308;SDS011;48433;53.016;-2.260;2023-10-31T05:25:52;10.43;;;4.00;;
59308;SDS011;48433;53.016;-2.260;2023-10-31T05:28:20;8.13;;;3.25;;
59308;SDS011;48433;53.016;-2.260;2023-10-31T05:30:47;6.65;;;3.33;;
59308;SDS011;48433;53.016;-2.260;2023-10-31T05:33:16;7.32;;;3.33;;
59308;SDS011;48433;53.016;-2.260;2023-10-31T05:35:43;7.18;;;3.40;;
59308;SDS011;48433;53.016;-2.260;2023-10-31T05:38:11;9.45;;;3.63;;
59308;SDS011;48433;53.016;-2.260;2023-10-31T05:40:38;8.50;;;3.03;;
59308;SDS011;48433;53.016;-2.260;2023-10-31T05:43:06;9.73;;;4.18;;
59308;SDS011;48433;53.016;-2.260;2023-10-31T05:45:34;7.80;;;3.90;;
59308;SDS011;48433;53.016;-2.260;2023-10-31T05:48:01;8.20;;;3.63;;
59308;SDS011;48433;53.016;-2.260;2023-10-31T05:50:30;6.35;;;3.35;;
59308;SDS011;48433;53.016;-2.260;2023-10-31T05:52:57;8.55;;;4.35;;
59308;SDS011;48433;53.016;-2.260;2023-10-31T05:55:25;8.68;;;4.55;;
59308;SDS011;48433;53.016;-2.260;2023-10-31T05:57:53;9.13;;;4.50;;
59308;SDS011;48433;53.016;-2.260;2023-10-31T06:00:20;7.88;;;4.30;;
59308;SDS011;48433;53.016;-2.260;2023-10-31T06:02:48;8.82;;;4.13;;
59308;SDS011;48433;53.016;-2.260;2023-10-31T06:05:15;10.05;;;5.15;;
59308;SDS011;48433;53.016;-2.260;2023-10-31T06:07:43;11.50;;;5.25;;
59308;SDS011;48433;53.016;-2.260;2023-10-31T06:10:11;9.93;;;4.88;;
59308;SDS011;48433;53.016;-2.260;2023-10-31T06:12:38;13.13;;;5.85;;
59308;SDS011;48433;53.016;-2.260;2023-10-31T06:15:06;9.85;;;5.13;;
59308;SDS011;48433;53.016;-2.260;2023-10-31T06:17:35;11.05;;;5.40;;
59308;SDS011;48433;53.016;-2.260;2023-10-31T06:20:02;9.95;;;5.50;;
59308;SDS011;48433;53.016;-2.260;2023-10-31T06:22:30;12.57;;;5.65;;
59308;SDS011;48433;53.016;-2.260;2023-10-31T06:24:58;12.63;;;5.78;;
59308;SDS011;48433;53.016;-2.260;2023-10-31T06:27:26;14.00;;;6.35;;
59308;SDS011;48433;53.016;-2.260;2023-10-31T06:29:53;13.73;;;5.75;;
59308;SDS011;48433;53.016;-2.260;2023-10-31T06:32:42;12.10;;;6.55;;
59308;SDS011;48433;53.016;-2.260;2023-10-31T06:35:10;11.55;;;6.80;;
59308;SDS011;48433;53.016;-2.260;2023-10-31T06:37:37;12.00;;;6.85;;
59308;SDS011;48433;53.016;-2.260;2023-10-31T06:40:05;12.15;;;6.30;;
59308;SDS011;48433;53.016;-2.260;2023-10-31T06:42:34;14.52;;;6.65;;
59308;SDS011;48433;53.016;-2.260;2023-10-31T06:45:03;12.88;;;7.13;;
59308;SDS011;48433;53.016;-2.260;2023-10-31T06:47:33;13.35;;;6.65;;
59308;SDS011;48433;53.016;-2.260;2023-10-31T06:50:01;13.63;;;7.03;;
59308;SDS011;48433;53.016;-2.260;2023-10-31T06:52:29;14.55;;;6.82;;
59308;SDS011;48433;53.016;-2.260;2023-10-31T06:54:56;12.73;;;6.80;;
59308;SDS011;48433;53.016;-2.260;2023-10-31T06:57:24;15.05;;;7.22;;
59308;SDS011;48433;53.016;-2.260;2023-10-31T06:59:53;13.77;;;6.65;;
59308;SDS011;48433;53.016;-2.260;2023-10-31T07:02:20;15.13;;;7.82;;
59308;SDS011;48433;53.016;-2.260;2023-10-31T07:04:48;12.52;;;6.40;;
59308;SDS011;48433;53.016;-2.260;2023-10-31T07:07:16;12.52;;;6.90;;
59308;SDS011;48433;53.016;-2.260;2023-10-31T07:09:44;14.13;;;6.57;;
59308;SDS011;48433;53.016;-2.260;2023-10-31T07:12:11;16.88;;;7.55;;
59308;SDS011;48433;53.016;-2.260;2023-10-31T07:14:39;12.57;;;6.47;;
59308;SDS011;48433;53.016;-2.260;2023-10-31T07:17:07;15.48;;;7.90;;
59308;SDS011;48433;53.016;-2.260;2023-10-31T07:19:34;13.40;;;6.82;;
59308;SDS011;48433;53.016;-2.260;2023-10-31T07:22:02;14.40;;;7.10;;
59308;SDS011;48433;53.016;-2.260;2023-10-31T07:24:30;11.10;;;5.80;;
59308;SDS011;48433;53.016;-2.260;2023-10-31T07:26:57;12.80;;;6.78;;
59308;SDS011;48433;53.016;-2.260;2023-10-31T07:29:25;12.77;;;6.97;;
59308;SDS011;48433;53.016;-2.260;2023-10-31T07:31:52;12.77;;;7.00;;
59308;SDS011;48433;53.016;-2.260;2023-10-31T07:34:20;13.52;;;7.10;;
59308;SDS011;48433;53.016;-2.260;2023-10-31T07:36:48;14.65;;;7.03;;
59308;SDS011;48433;53.016;-2.260;2023-10-31T07:39:15;14.98;;;7.63;;
59308;SDS011;48433;53.016;-2.260;2023-10-31T07:41:43;16.95;;;8.70;;
59308;SDS011;48433;53.016;-2.260;2023-10-31T07:44:11;19.98;;;9.98;;
59308;SDS011;48433;53.016;-2.260;2023-10-31T07:46:39;17.02;;;8.65;;
59308;SDS011;48433;53.016;-2.260;2023-10-31T07:49:07;17.10;;;9.23;;
59308;SDS011;48433;53.016;-2.260;2023-10-31T07:51:35;16.88;;;8.77;;
59308;SDS011;48433;53.016;-2.260;2023-10-31T07:54:02;16.55;;;8.55;;
59308;SDS011;48433;53.016;-2.260;2023-10-31T07:56:30;20.00;;;7.72;;
59308;SDS011;48433;53.016;-2.260;2023-10-31T07:58:59;19.92;;;9.65;;
59308;SDS011;48433;53.016;-2.260;2023-10-31T08:01:27;18.42;;;9.48;;
59308;SDS011;48433;53.016;-2.260;2023-10-31T08:03:55;18.63;;;9.05;;
59308;SDS011;48433;53.016;-2.260;2023-10-31T08:06:23;16.65;;;8.10;;
59308;SDS011;48433;53.016;-2.260;2023-10-31T08:08:50;19.15;;;8.02;;
59308;SDS011;48433;53.016;-2.260;2023-10-31T08:11:18;21.52;;;9.43;;
59308;SDS011;48433;53.016;-2.260;2023-10-31T08:13:45;16.25;;;8.80;;
59308;SDS011;48433;53.016;-2.260;2023-10-31T08:16:17;18.25;;;8.52;;
59308;SDS011;48433;53.016;-2.260;2023-10-31T08:18:46;21.33;;;9.30;;
59308;SDS011;48433;53.016;-2.260;2023-10-31T08:21:15;22.80;;;9.73;;
59308;SDS011;48433;53.016;-2.260;2023-10-31T08:23:42;20.15;;;9.27;;
59308;SDS011;48433;53.016;-2.260;2023-10-31T08:26:13;19.27;;;9.60;;
59308;SDS011;48433;53.016;-2.260;2023-10-31T08:28:41;20.73;;;9.65;;
59308;SDS011;48433;53.016;-2.260;2023-10-31T08:31:08;20.67;;;9.30;;
59308;SDS011;48433;53.016;-2.260;2023-10-31T08:33:36;19.13;;;10.25;;
59308;SDS011;48433;53.016;-2.260;2023-10-31T08:36:04;23.63;;;10.15;;
59308;SDS011;48433;53.016;-2.260;2023-10-31T08:38:33;17.25;;;9.25;;
59308;SDS011;48433;53.016;-2.260;2023-10-31T08:41:01;20.08;;;9.63;;
59308;SDS011;48433;53.016;-2.260;2023-10-31T08:43:29;20.00;;;10.00;;
59308;SDS011;48433;53.016;-2.260;2023-10-31T08:45:57;18.25;;;9.35;;
59308;SDS011;48433;53.016;-2.260;2023-10-31T08:48:24;19.17;;;11.05;;
59308;SDS011;48433;53.016;-2.260;2023-10-31T08:50:53;19.23;;;8.95;;
59308;SDS011;48433;53.016;-2.260;2023-10-31T08:53:21;17.42;;;8.40;;
59308;SDS011;48433;53.016;-2.260;2023-10-31T08:55:49;17.23;;;8.70;;
59308;SDS011;48433;53.016;-2.260;2023-10-31T08:58:17;14.80;;;8.38;;
59308;SDS011;48433;53.016;-2.260;2023-10-31T09:00:45;18.48;;;9.60;;
59308;SDS011;48433;53.016;-2.260;2023-10-31T09:03:13;18.75;;;9.85;;
59308;SDS011;48433;53.016;-2.260;2023-10-31T09:05:41;21.13;;;10.45;;
59308;SDS011;48433;53.016;-2.260;2023-10-31T09:08:09;18.92;;;10.15;;
59308;SDS011;48433;53.016;-2.260;2023-10-31T09:10:37;21.05;;;11.57;;
59308;SDS011;48433;53.016;-2.260;2023-10-31T09:13:05;20.35;;;10.23;;
59308;SDS011;48433;53.016;-2.260;2023-10-31T09:15:33;24.13;;;11.40;;
59308;SDS011;48433;53.016;-2.260;2023-10-31T09:18:00;18.55;;;9.68;;
59308;SDS011;48433;53.016;-2.260;2023-10-31T09:20:29;21.20;;;11.18;;
59308;SDS011;48433;53.016;-2.260;2023-10-31T09:22:56;19.17;;;10.40;;
59308;SDS011;48433;53.016;-2.260;2023-10-31T09:25:24;18.95;;;10.68;;
59308;SDS011;48433;53.016;-2.260;2023-10-31T09:27:52;18.48;;;9.02;;
59308;SDS011;48433;53.016;-2.260;2023-10-31T09:30:20;19.10;;;11.00;;
59308;SDS011;48433;53.016;-2.260;2023-10-31T09:32:47;24.17;;;10.80;;
59308;SDS011;48433;53.016;-2.260;2023-10-31T09:35:15;19.05;;;10.07;;
59308;SDS011;48433;53.016;-2.260;2023-10-31T09:37:44;22.88;;;11.23;;
59308;SDS011;48433;53.016;-2.260;2023-10-31T09:40:15;21.00;;;10.43;;
59308;SDS011;48433;53.016;-2.260;2023-10-31T09:42:44;22.60;;;10.77;;
59308;SDS011;48433;53.016;-2.260;2023-10-31T09:45:12;27.17;;;11.43;;
59308;SDS011;48433;53.016;-2.260;2023-10-31T09:47:40;22.80;;;11.55;;
59308;SDS011;48433;53.016;-2.260;2023-10-31T09:50:10;21.90;;;11.82;;
59308;SDS011;48433;53.016;-2.260;2023-10-31T09:52:38;21.30;;;11.63;;
59308;SDS011;48433;53.016;-2.260;2023-10-31T09:55:06;21.40;;;11.70;;
59308;SDS011;48433;53.016;-2.260;2023-10-31T09:57:35;18.13;;;9.95;;
59308;SDS011;48433;53.016;-2.260;2023-10-31T10:00:03;21.58;;;12.27;;
59308;SDS011;48433;53.016;-2.260;2023-10-31T10:02:35;21.45;;;11.52;;
59308;SDS011;48433;53.016;-2.260;2023-10-31T10:05:04;20.70;;;11.15;;
59308;SDS011;48433;53.016;-2.260;2023-10-31T10:07:33;20.30;;;10.95;;
59308;SDS011;48433;53.016;-2.260;2023-10-31T10:10:01;18.55;;;10.63;;
59308;SDS011;48433;53.016;-2.260;2023-10-31T10:12:29;19.73;;;10.30;;
59308;SDS011;48433;53.016;-2.260;2023-10-31T10:14:58;20.35;;;10.65;;
59308;SDS011;48433;53.016;-2.260;2023-10-31T10:17:26;18.98;;;11.40;;
59308;SDS011;48433;53.016;-2.260;2023-10-31T10:20:10;20.23;;;10.18;;
59308;SDS011;48433;53.016;-2.260;2023-10-31T10:22:41;19.23;;;9.88;;
59308;SDS011;48433;53.016;-2.260;2023-10-31T10:27:43;19.35;;;10.05;;
59308;SDS011;48433;53.016;-2.260;2023-10-31T10:30:12;19.70;;;10.35;;
59308;SDS011;48433;53.016;-2.260;2023-10-31T10:32:40;20.05;;;10.23;;
59308;SDS011;48433;53.016;-2.260;2023-10-31T10:35:08;17.80;;;9.90;;
59308;SDS011;48433;53.016;-2.260;2023-10-31T10:37:37;20.50;;;9.98;;
59308;SDS011;48433;53.016;-2.260;2023-10-31T10:40:07;18.75;;;10.13;;
59308;SDS011;48433;53.016;-2.260;2023-10-31T10:42:46;19.17;;;10.50;;
59308;SDS011;48433;53.016;-2.260;2023-10-31T10:45:15;19.48;;;10.43;;
59308;SDS011;48433;53.016;-2.260;2023-10-31T10:47:45;26.08;;;11.15;;
59308;SDS011;48433;53.016;-2.260;2023-10-31T10:50:15;18.00;;;9.60;;
59308;SDS011;48433;53.016;-2.260;2023-10-31T10:52:50;28.35;;;10.60;;
59308;SDS011;48433;53.016;-2.260;2023-10-31T10:55:28;18.17;;;9.50;;
59308;SDS011;48433;53.016;-2.260;2023-10-31T10:58:00;22.98;;;9.82;;
59308;SDS011;48433;53.016;-2.260;2023-10-31T11:00:32;21.13;;;10.23;;
59308;SDS011;48433;53.016;-2.260;2023-10-31T11:03:01;23.65;;;10.07;;
59308;SDS011;48433;53.016;-2.260;2023-10-31T11:05:31;24.58;;;12.02;;
59308;SDS011;48433;53.016;-2.260;2023-10-31T11:07:59;21.83;;;10.68;;
59308;SDS011;48433;53.016;-2.260;2023-10-31T11:10:28;24.52;;;10.75;;
59308;SDS011;48433;53.016;-2.260;2023-10-31T11:12:56;22.90;;;11.27;;
59308;SDS011;48433;53.016;-2.260;2023-10-31T11:15:25;22.60;;;11.23;;
59308;SDS011;48433;53.016;-2.260;2023-10-31T11:17:54;19.35;;;10.65;;
59308;SDS011;48433;53.016;-2.260;2023-10-31T11:20:24;23.98;;;10.82;;
59308;SDS011;48433;53.016;-2.260;2023-10-31T11:22:54;19.42;;;10.77;;
59308;SDS011;48433;53.016;-2.260;2023-10-31T11:25:26;24.27;;;11.10;;
59308;SDS011;48433;53.016;-2.260;2023-10-31T11:28:13;22.77;;;11.05;;
59308;SDS011;48433;53.016;-2.260;2023-10-31T11:30:46;25.83;;;11.88;;
59308;SDS011;48433;53.016;-2.260;2023-10-31T11:33:20;23.98;;;11.98;;
59308;SDS011;48433;53.016;-2.260;2023-10-31T11:35:59;26.83;;;12.63;;
59308;SDS011;48433;53.016;-2.260;2023-10-31T11:38:32;26.35;;;12.73;;
59308;SDS011;48433;53.016;-2.260;2023-10-31T11:41:02;22.73;;;11.15;;
59308;SDS011;48433;53.016;-2.260;2023-10-31T11:46:20;20.08;;;11.32;;
59308;SDS011;48433;53.016;-2.260;2023-10-31T11:48:56;16.92;;;8.35;;
59308;SDS011;48433;53.016;-2.260;2023-10-31T11:51:24;18.25;;;9.70;;
59308;SDS011;48433;53.016;-2.260;2023-10-31T11:53:53;17.63;;;9.38;;
59308;SDS011;48433;53.016;-2.260;2023-10-31T11:56:21;21.23;;;10.60;;
59308;SDS011;48433;53.016;-2.260;2023-10-31T11:58:58;22.92;;;10.27;;
59308;SDS011;48433;53.016;-2.260;2023-10-31T12:01:28;21.73;;;11.30;;
59308;SDS011;48433;53.016;-2.260;2023-10-31T12:03:56;23.10;;;10.82;;
59308;SDS011;48433;53.016;-2.260;2023-10-31T12:06:24;19.20;;;10.40;;
59308;SDS011;48433;53.016;-2.260;2023-10-31T12:08:52;17.15;;;9.27;;
59308;SDS011;48433;53.016;-2.260;2023-10-31T12:11:21;18.27;;;9.02;;
59308;SDS011;48433;53.016;-2.260;2023-10-31T12:13:54;20.10;;;9.63;;
59308;SDS011;48433;53.016;-2.260;2023-10-31T12:16:26;16.75;;;8.27;;
59308;SDS011;48433;53.016;-2.260;2023-10-31T12:18:55;14.90;;;7.22;;
59308;SDS011;48433;53.016;-2.260;2023-10-31T12:21:41;15.43;;;9.40;;
59308;SDS011;48433;53.016;-2.260;2023-10-31T12:24:11;16.77;;;7.90;;
59308;SDS011;48433;53.016;-2.260;2023-10-31T12:26:40;18.88;;;7.95;;
59308;SDS011;48433;53.016;-2.260;2023-10-31T12:29:09;15.65;;;8.02;;
59308;SDS011;48433;53.016;-2.260;2023-10-31T12:31:42;19.33;;;10.90;;
59308;SDS011;48433;53.016;-2.260;2023-10-31T12:34:13;19.50;;;9.68;;
59308;SDS011;48433;53.016;-2.260;2023-10-31T12:36:42;20.77;;;8.98;;
59308;SDS011;48433;53.016;-2.260;2023-10-31T12:39:11;16.10;;;8.70;;
59308;SDS011;48433;53.016;-2.260;2023-10-31T12:41:40;14.40;;;8.18;;
59308;SDS011;48433;53.016;-2.260;2023-10-31T12:44:08;17.40;;;8.88;;
59308;SDS011;48433;53.016;-2.260;2023-10-31T12:46:40;18.33;;;8.00;;
59308;SDS011;48433;53.016;-2.260;2023-10-31T12:52:02;18.73;;;8.40;;
59308;SDS011;48433;53.016;-2.260;2023-10-31T12:54:32;16.42;;;8.68;;
59308;SDS011;48433;53.016;-2.260;2023-10-31T12:57:02;13.60;;;7.45;;
59308;SDS011;48433;53.016;-2.260;2023-10-31T12:59:34;15.75;;;7.68;;
59308;SDS011;48433;53.016;-2.260;2023-10-31T13:02:05;19.42;;;8.25;;
59308;SDS011;48433;53.016;-2.260;2023-10-31T13:04:33;14.02;;;7.40;;
59308;SDS011;48433;53.016;-2.260;2023-10-31T13:07:02;15.35;;;6.85;;
59308;SDS011;48433;53.016;-2.260;2023-10-31T13:09:32;18.73;;;7.07;;
59308;SDS011;48433;53.016;-2.260;2023-10-31T13:12:03;13.90;;;7.53;;
59308;SDS011;48433;53.016;-2.260;2023-10-31T13:14:33;12.98;;;7.30;;
59308;SDS011;48433;53.016;-2.260;2023-10-31T13:17:01;15.43;;;6.85;;
59308;SDS011;48433;53.016;-2.260;2023-10-31T13:19:30;13.98;;;7.10;;
59308;SDS011;48433;53.016;-2.260;2023-10-31T13:21:58;12.13;;;6.13;;
59308;SDS011;48433;53.016;-2.260;2023-10-31T13:24:25;12.80;;;5.70;;
59308;SDS011;48433;53.016;-2.260;2023-10-31T13:26:53;16.50;;;5.97;;
59308;SDS011;48433;53.016;-2.260;2023-10-31T13:29:21;12.98;;;6.35;;
59308;SDS011;48433;53.016;-2.260;2023-10-31T13:31:52;9.40;;;4.75;;
59308;SDS011;48433;53.016;-2.260;2023-10-31T13:34:20;11.35;;;5.25;;
59308;SDS011;48433;53.016;-2.260;2023-10-31T13:36:48;9.63;;;5.20;;
59308;SDS011;48433;53.016;-2.260;2023-10-31T13:39:20;10.25;;;4.53;;
59308;SDS011;48433;53.016;-2.260;2023-10-31T13:41:48;9.38;;;5.05;;
59308;SDS011;48433;53.016;-2.260;2023-10-31T13:44:16;11.32;;;5.13;;
59308;SDS011;48433;53.016;-2.260;2023-10-31T13:46:43;11.07;;;4.32;;
59308;SDS011;48433;53.016;-2.260;2023-10-31T13:49:11;8.40;;;4.03;;
59308;SDS011;48433;53.016;-2.260;2023-10-31T13:51:39;12.48;;;4.53;;
59308;SDS011;48433;53.016;-2.260;2023-10-31T13:54:07;16.02;;;4.63;;
59308;SDS011;48433;53.016;-2.260;2023-10-31T13:56:35;9.48;;;4.50;;
59308;SDS011;48433;53.016;-2.260;2023-10-31T13:59:03;17.20;;;5.25;;
59308;SDS011;48433;53.016;-2.260;2023-10-31T14:01:31;10.30;;;4.85;;
59308;SDS011;48433;53.016;-2.260;2023-10-31T14:03:58;10.20;;;4.60;;
59308;SDS011;48433;53.016;-2.260;2023-10-31T14:06:26;14.35;;;4.45;;
59308;SDS011;48433;53.016;-2.260;2023-10-31T14:09:00;10.15;;;4.68;;
59308;SDS011;48433;53.016;-2.260;2023-10-31T14:11:32;9.25;;;4.47;;
59308;SDS011;48433;53.016;-2.260;2023-10-31T14:14:01;8.55;;;3.50;;
59308;SDS011;48433;53.016;-2.260;2023-10-31T14:16:37;10.68;;;3.78;;
59308;SDS011;48433;53.016;-2.260;2023-10-31T14:19:07;10.90;;;4.60;;
59308;SDS011;48433;53.016;-2.260;2023-10-31T14:21:35;10.82;;;4.50;;
59308;SDS011;48433;53.016;-2.260;2023-10-31T14:24:04;9.27;;;2.80;;
59308;SDS011;48433;53.016;-2.260;2023-10-31T14:26:39;16.40;;;2.95;;
59308;SDS011;48433;53.016;-2.260;2023-10-31T14:29:10;9.55;;;3.22;;
59308;SDS011;48433;53.016;-2.260;2023-10-31T14:31:39;10.40;;;3.08;;
59308;SDS011;48433;53.016;-2.260;2023-10-31T14:34:08;8.40;;;3.70;;
59308;SDS011;48433;53.016;-2.260;2023-10-31T14:36:36;9.55;;;3.67;;